Time;durP1;ratioP1;P1;durP2;ratioP2;P2;SDS_P1;SDS_P2;PMS_P1;PMS_P2;Temp;Humidity;BMP_temperature;BMP_pressure;BME280_temperature;BME280_humidity;BME280_pressure;Samples;Min_cycle;Max_cycle;Signal;HPM_P1;HPM_P2
2023/12/21 00:01:45;;;;;;;0.70;0.70;;;5.20;1.00;;;;;;5027166;28;20781;-81
2023/12/21 00:04:11;;;;;;;0.70;0.70;;;5.20;1.00;;;;;;5030037;28;20250;-82
2023/12/21 00:06:37;;;;;;;0.80;0.80;;;5.20;1.00;;;;;;5032189;28;20219;-82
2023/12/21 00:09:02;;;;;;;0.80;0.80;;;5.20;1.00;;;;;;5033311;28;20180;-82
2023/12/21 00:11:28;;;;;;;0.80;0.80;;;5.70;1.00;;;;;;5033784;28;20179;-82
2023/12/21 00:13:53;;;;;;;0.80;0.80;;;5.30;1.00;;;;;;5033477;28;20176;-81
2023/12/21 00:16:19;;;;;;;0.80;0.80;;;5.30;1.00;;;;;;5032976;28;20206;-82
2023/12/21 00:18:44;;;;;;;0.90;0.90;;;5.30;1.00;;;;;;5032684;28;20180;-82
2023/12/21 00:21:10;;;;;;;0.80;0.80;;;5.30;1.00;;;;;;5033924;28;20542;-82
2023/12/21 00:23:36;;;;;;;0.70;0.70;;;5.30;1.00;;;;;;5033265;28;20179;-83
2023/12/21 00:26:01;;;;;;;0.80;0.80;;;5.30;1.00;;;;;;5032139;28;20207;-83
2023/12/21 00:28:27;;;;;;;0.80;0.80;;;5.30;1.00;;;;;;5034327;28;20241;-83
2023/12/21 00:30:53;;;;;;;0.70;0.70;;;5.30;1.00;;;;;;5032249;28;20528;-82
2023/12/21 00:33:18;;;;;;;0.70;0.70;;;5.30;1.00;;;;;;5030532;28;20172;-80
2023/12/21 00:35:44;;;;;;;0.80;0.80;;;5.30;1.00;;;;;;5052843;28;20200;-82
2023/12/21 00:38:09;;;;;;;0.80;0.80;;;5.30;1.00;;;;;;5054246;28;20222;-79
2023/12/21 00:40:35;;;;;;;0.80;0.80;;;5.30;1.00;;;;;;5053763;28;20195;-81
2023/12/21 00:43:00;;;;;;;0.80;0.80;;;5.30;1.00;;;;;;5051923;28;20186;-84
2023/12/21 00:45:26;;;;;;;0.70;0.70;;;5.30;1.00;;;;;;5038308;28;20219;-82
2023/12/21 00:47:52;;;;;;;0.70;0.70;;;5.30;1.00;;;;;;5036505;28;20172;-83
2023/12/21 00:50:17;;;;;;;0.80;0.80;;;5.30;1.00;;;;;;5036710;28;20207;-83
2023/12/21 00:52:43;;;;;;;0.80;0.80;;;5.30;1.00;;;;;;5036788;28;20488;-83
2023/12/21 00:55:09;;;;;;;0.80;0.80;;;5.30;1.00;;;;;;5036203;28;20638;-82
2023/12/21 00:57:34;;;;;;;0.80;0.80;;;5.40;1.00;;;;;;5035899;28;20275;-83
2023/12/21 01:00:00;;;;;;;0.70;0.70;;;5.30;1.00;;;;;;5036143;28;20218;-83
2023/12/21 01:02:26;;;;;;;0.70;0.70;;;5.40;1.00;;;;;;5036858;28;20176;-82
2023/12/21 01:04:51;;;;;;;0.70;0.70;;;5.40;1.00;;;;;;5036780;28;20253;-82
2023/12/21 01:07:17;;;;;;;0.70;0.70;;;5.40;1.00;;;;;;5035976;28;20294;-83
2023/12/21 01:09:43;;;;;;;0.70;0.70;;;5.40;1.00;;;;;;5036586;28;20780;-83
2023/12/21 01:12:08;;;;;;;0.80;0.80;;;5.40;1.00;;;;;;5038088;28;20217;-83
2023/12/21 01:14:34;;;;;;;0.77;0.77;;;5.40;1.00;;;;;;5040386;28;20172;-83
2023/12/21 01:16:59;;;;;;;0.70;0.70;;;5.40;1.00;;;;;;5039020;28;20192;-82
2023/12/21 01:19:26;;;;;;;0.70;0.70;;;5.40;1.00;;;;;;5039799;28;20187;-83
2023/12/21 01:21:52;;;;;;;0.80;0.80;;;5.40;1.00;;;;;;5039046;28;20180;-83
2023/12/21 01:24:17;;;;;;;0.70;0.70;;;5.40;1.00;;;;;;5039029;28;20270;-82
2023/12/21 01:26:43;;;;;;;0.80;0.80;;;5.40;1.00;;;;;;5038169;28;20212;-84
2023/12/21 01:29:09;;;;;;;0.80;0.80;;;5.40;1.00;;;;;;5039097;28;20176;-82
2023/12/21 01:31:34;;;;;;;0.70;0.70;;;5.40;1.00;;;;;;5039728;28;20168;-82
2023/12/21 01:34:01;;;;;;;0.80;0.80;;;5.40;1.00;;;;;;5039482;28;20221;-83
2023/12/21 01:36:27;;;;;;;0.80;0.80;;;5.40;1.00;;;;;;5042819;28;20200;-84
2023/12/21 01:38:52;;;;;;;0.73;0.73;;;5.50;1.00;;;;;;5047149;28;20258;-82
2023/12/21 01:41:18;;;;;;;0.70;0.70;;;5.40;1.00;;;;;;5040292;28;20176;-84
2023/12/21 01:43:44;;;;;;;0.70;0.70;;;5.50;1.00;;;;;;5041007;28;20638;-83
2023/12/21 01:46:09;;;;;;;0.80;0.80;;;5.50;1.00;;;;;;5039077;28;20302;-83
2023/12/21 01:48:36;;;;;;;0.70;0.70;;;5.50;1.00;;;;;;5039770;28;20176;-82
2023/12/21 01:51:04;;;;;;;0.80;0.80;;;5.40;1.00;;;;;;5039606;28;20187;-83
2023/12/21 01:53:31;;;;;;;0.70;0.70;;;5.50;1.00;;;;;;5040528;28;20180;-83
2023/12/21 01:55:57;;;;;;;0.70;0.70;;;5.50;1.00;;;;;;5038768;28;20200;-83
2023/12/21 01:58:23;;;;;;;0.80;0.80;;;5.50;1.00;;;;;;5038596;28;20282;-82
2023/12/21 02:00:49;;;;;;;0.80;0.80;;;5.50;1.00;;;;;;5038311;28;20196;-83
2023/12/21 02:03:16;;;;;;;0.70;0.70;;;5.50;1.00;;;;;;5038665;28;20179;-82
2023/12/21 02:05:41;;;;;;;0.80;0.80;;;5.50;1.00;;;;;;5037074;28;20287;-81
2023/12/21 02:08:07;;;;;;;0.73;0.73;;;5.40;1.00;;;;;;5036951;28;20538;-82
2023/12/21 02:10:33;;;;;;;0.73;0.73;;;5.50;1.00;;;;;;5037953;28;20234;-82
2023/12/21 02:12:59;;;;;;;0.80;0.80;;;5.50;1.00;;;;;;5037546;28;20180;-82
2023/12/21 02:15:24;;;;;;;0.70;0.70;;;5.50;1.00;;;;;;5036793;28;20184;-82
2023/12/21 02:17:52;;;;;;;0.77;0.77;;;5.60;1.00;;;;;;5037539;28;20190;-83
2023/12/21 02:20:19;;;;;;;0.80;0.80;;;5.60;1.00;;;;;;5037080;28;20275;-83
2023/12/21 02:22:47;;;;;;;0.70;0.70;;;5.60;1.00;;;;;;5035262;28;20182;-83
2023/12/21 02:25:14;;;;;;;0.70;0.70;;;5.60;1.00;;;;;;5035335;28;20298;-82
2023/12/21 02:27:39;;;;;;;0.70;0.70;;;5.70;1.00;;;;;;5037248;28;20242;-81
2023/12/21 02:30:05;;;;;;;0.70;0.70;;;5.60;1.00;;;;;;5037402;28;20176;-82
2023/12/21 02:32:31;;;;;;;0.80;0.80;;;5.70;1.00;;;;;;5036989;28;20172;-81
2023/12/21 02:34:57;;;;;;;0.70;0.70;;;5.70;1.00;;;;;;5034731;28;20554;-83
2023/12/21 02:37:22;;;;;;;0.70;0.70;;;5.70;1.00;;;;;;5036237;28;20219;-81
2023/12/21 02:39:48;;;;;;;0.80;0.80;;;5.70;1.00;;;;;;5036300;28;20547;-83
2023/12/21 02:42:13;;;;;;;0.70;0.70;;;5.70;1.00;;;;;;5035799;28;20495;-81
2023/12/21 02:44:39;;;;;;;0.80;0.80;;;5.70;1.00;;;;;;5035584;28;20230;-82
2023/12/21 02:47:04;;;;;;;0.80;0.80;;;5.70;1.00;;;;;;5035175;28;20214;-83
2023/12/21 02:49:30;;;;;;;0.70;0.70;;;5.80;1.00;;;;;;5036353;28;20263;-81
2023/12/21 02:51:55;;;;;;;0.70;0.70;;;5.80;1.00;;;;;;5035757;28;20176;-82
2023/12/21 02:54:21;;;;;;;0.80;0.80;;;5.70;1.00;;;;;;5034227;28;20609;-82
2023/12/21 02:56:47;;;;;;;0.70;0.70;;;5.70;1.00;;;;;;5034899;28;20218;-81
2023/12/21 02:59:12;;;;;;;0.80;0.80;;;5.70;1.00;;;;;;5035404;28;20203;-81
2023/12/21 03:01:41;;;;;;;0.80;0.80;;;5.70;1.00;;;;;;5034592;28;20202;-83
2023/12/21 03:04:09;;;;;;;0.70;0.70;;;5.70;1.00;;;;;;5033604;28;20180;-82
2023/12/21 03:06:34;;;;;;;0.80;0.80;;;5.70;1.00;;;;;;5032365;28;20281;-82
2023/12/21 03:09:00;;;;;;;0.70;0.70;;;5.70;1.00;;;;;;5034230;28;20172;-82
2023/12/21 03:11:25;;;;;;;0.80;0.80;;;5.60;1.00;;;;;;5034151;28;20188;-81
2023/12/21 03:13:51;;;;;;;0.73;0.73;;;5.70;1.00;;;;;;5031955;28;20266;-82
2023/12/21 03:16:19;;;;;;;0.80;0.80;;;5.60;1.00;;;;;;5033197;28;20199;-82
2023/12/21 03:18:48;;;;;;;0.80;0.80;;;5.60;1.00;;;;;;5033987;28;20586;-82
2023/12/21 03:21:15;;;;;;;0.70;0.70;;;5.70;1.00;;;;;;5033824;28;20314;-82
2023/12/21 03:23:41;;;;;;;0.70;0.70;;;5.70;1.00;;;;;;5032381;28;20168;-81
2023/12/21 03:26:09;;;;;;;0.80;0.80;;;5.70;1.00;;;;;;5032689;28;20273;-83
2023/12/21 03:28:35;;;;;;;0.70;0.70;;;5.70;1.00;;;;;;5035367;28;20178;-82
2023/12/21 03:31:01;;;;;;;0.70;0.70;;;5.60;1.00;;;;;;5036162;28;20172;-81
2023/12/21 03:33:27;;;;;;;0.70;0.70;;;5.70;1.00;;;;;;5047432;28;20207;-82
2023/12/21 03:35:53;;;;;;;0.80;0.80;;;5.70;1.00;;;;;;5033890;28;20560;-82
2023/12/21 03:38:18;;;;;;;0.77;0.77;;;5.70;1.00;;;;;;5035387;28;20544;-81
2023/12/21 03:40:44;;;;;;;0.73;0.73;;;5.70;1.00;;;;;;5034450;28;20217;-81
2023/12/21 03:43:09;;;;;;;0.70;0.70;;;5.70;1.00;;;;;;5034899;28;20184;-81
2023/12/21 03:45:40;;;;;;;0.70;0.70;;;5.70;1.00;;;;;;5033961;28;20703;-80
2023/12/21 03:48:08;;;;;;;0.63;0.63;;;5.80;1.00;;;;;;5034110;28;20180;-81
2023/12/21 03:50:34;;;;;;;0.80;0.80;;;5.80;1.00;;;;;;5034023;28;20235;-82
2023/12/21 03:52:59;;;;;;;0.70;0.70;;;5.80;1.00;;;;;;5033989;28;20176;-82
2023/12/21 03:55:25;;;;;;;0.80;0.80;;;5.80;1.00;;;;;;5033433;28;20180;-81
2023/12/21 03:57:50;;;;;;;0.80;0.80;;;5.80;1.00;;;;;;5034134;28;20167;-80
2023/12/21 04:00:19;;;;;;;0.70;0.70;;;5.80;1.00;;;;;;5033956;28;20195;-82
2023/12/21 04:02:46;;;;;;;0.80;0.80;;;5.90;1.00;;;;;;5033825;28;20187;-82
2023/12/21 04:05:12;;;;;;;0.70;0.70;;;5.90;1.00;;;;;;5032984;28;20253;-81
2023/12/21 04:07:38;;;;;;;0.70;0.70;;;5.90;1.00;;;;;;5033774;28;20664;-81
2023/12/21 04:10:04;;;;;;;0.70;0.70;;;5.90;1.00;;;;;;5034136;28;20176;-81
2023/12/21 04:12:29;;;;;;;0.70;0.70;;;5.80;1.00;;;;;;5034482;28;20595;-82
2023/12/21 04:14:56;;;;;;;0.80;0.80;;;5.90;1.00;;;;;;5033964;28;20179;-82
2023/12/21 04:17:21;;;;;;;0.80;0.80;;;5.90;1.00;;;;;;5033875;28;20195;-82
2023/12/21 04:19:47;;;;;;;0.80;0.80;;;5.90;1.00;;;;;;5034850;28;20712;-81
2023/12/21 04:22:12;;;;;;;0.70;0.70;;;5.90;1.00;;;;;;5034486;28;20314;-81
2023/12/21 04:24:38;;;;;;;0.70;0.70;;;5.90;1.00;;;;;;5033901;28;20180;-82
2023/12/21 04:27:04;;;;;;;0.70;0.70;;;5.90;1.00;;;;;;5033390;28;20668;-81
2023/12/21 04:29:29;;;;;;;0.80;0.80;;;5.90;1.00;;;;;;5034064;28;20625;-81
2023/12/21 04:31:55;;;;;;;0.80;0.80;;;5.90;1.00;;;;;;5033950;28;20259;-81
2023/12/21 04:34:21;;;;;;;0.80;0.80;;;5.90;1.00;;;;;;5033699;28;20199;-83
2023/12/21 04:36:46;;;;;;;0.70;0.70;;;5.90;1.00;;;;;;5034033;28;20198;-82
2023/12/21 04:39:12;;;;;;;0.73;0.73;;;5.90;1.00;;;;;;5035083;28;20176;-83
2023/12/21 04:41:38;;;;;;;0.73;0.73;;;5.90;1.00;;;;;;5035529;28;20184;-82
2023/12/21 04:44:05;;;;;;;0.70;0.70;;;5.90;1.00;;;;;;5035257;28;20175;-80
2023/12/21 04:46:31;;;;;;;0.73;0.73;;;5.90;1.00;;;;;;5037342;28;20203;-83
2023/12/21 04:48:56;;;;;;;0.80;0.80;;;5.90;1.00;;;;;;5039319;28;20172;-83
2023/12/21 04:51:22;;;;;;;0.80;0.80;;;5.90;1.00;;;;;;5037492;28;20238;-82
2023/12/21 04:53:48;;;;;;;0.77;0.77;;;5.90;1.00;;;;;;5039662;28;20622;-81
2023/12/21 04:56:13;;;;;;;0.70;0.70;;;5.90;1.00;;;;;;5039487;28;20210;-82
2023/12/21 04:58:40;;;;;;;0.70;0.70;;;5.90;1.00;;;;;;5039783;28;20661;-82
2023/12/21 05:01:06;;;;;;;0.70;0.70;;;5.90;1.00;;;;;;5039579;28;20192;-82
2023/12/21 05:03:32;;;;;;;0.70;0.70;;;5.90;1.00;;;;;;5039403;28;20669;-81
2023/12/21 05:05:58;;;;;;;0.70;0.70;;;6.00;1.00;;;;;;5038745;28;20231;-83
2023/12/21 05:08:24;;;;;;;0.70;0.70;;;6.00;1.00;;;;;;5039752;28;20172;-83
2023/12/21 05:10:50;;;;;;;0.83;0.83;;;6.00;1.00;;;;;;5039427;28;20187;-83
2023/12/21 05:13:16;;;;;;;0.80;0.80;;;6.00;1.00;;;;;;5019619;28;20193;-81
2023/12/21 05:15:41;;;;;;;0.77;0.77;;;6.00;1.00;;;;;;5019359;28;20199;-82
2023/12/21 05:18:07;;;;;;;0.70;0.70;;;5.90;1.00;;;;;;5019842;28;20179;-84
2023/12/21 05:20:33;;;;;;;0.80;0.80;;;6.00;1.00;;;;;;5019294;28;20176;-82
2023/12/21 05:22:59;;;;;;;0.70;0.70;;;6.00;1.00;;;;;;5019078;28;20184;-82
2023/12/21 05:25:25;;;;;;;0.80;0.80;;;6.00;1.00;;;;;;5017897;28;20570;-81
2023/12/21 05:27:50;;;;;;;0.80;0.80;;;5.90;1.00;;;;;;5020992;28;20203;-81
2023/12/21 05:30:20;;;;;;;0.77;0.77;;;5.90;1.00;;;;;;5019352;28;20259;-82
2023/12/21 05:32:46;;;;;;;0.63;0.63;;;5.90;1.00;;;;;;5024771;28;20172;-82
2023/12/21 05:35:13;;;;;;;0.60;0.60;;;5.90;1.00;;;;;;5029310;28;20177;-83
2023/12/21 05:37:38;;;;;;;0.90;0.90;;;5.90;1.00;;;;;;5023238;28;20200;-82
2023/12/21 05:40:06;;;;;;;0.80;0.80;;;5.90;1.00;;;;;;5020902;28;20593;-82
2023/12/21 05:42:31;;;;;;;0.70;0.70;;;5.90;1.00;;;;;;5019537;28;20202;-84
2023/12/21 05:44:57;;;;;;;0.70;0.70;;;5.90;8.30;;;;;;5021071;28;20209;-81
2023/12/21 05:47:22;;;;;;;0.83;0.83;;;5.90;5.60;;;;;;5020178;28;20204;-82
2023/12/21 05:49:48;;;;;;;0.70;0.70;;;5.90;8.20;;;;;;5018780;28;20199;-82
2023/12/21 05:52:14;;;;;;;0.70;0.70;;;5.80;14.00;;;;;;5019125;28;20181;-82
2023/12/21 05:54:39;;;;;;;0.70;0.70;;;5.90;9.40;;;;;;5019329;28;20183;-83
2023/12/21 05:57:05;;;;;;;0.80;0.80;;;5.80;20.50;;;;;;5017667;28;20199;-82
2023/12/21 05:59:30;;;;;;;0.70;0.70;;;5.90;6.60;;;;;;5018727;28;20223;-81
2023/12/21 06:01:56;;;;;;;0.80;0.80;;;5.90;7.40;;;;;;5018575;28;20571;-81
2023/12/21 06:04:22;;;;;;;0.73;0.73;;;5.90;9.40;;;;;;5018231;28;20700;-82
2023/12/21 06:06:48;;;;;;;0.77;0.77;;;5.90;11.00;;;;;;5017643;28;20709;-80
2023/12/21 06:09:14;;;;;;;0.80;0.80;;;5.90;14.10;;;;;;5034464;28;20187;-81
2023/12/21 06:11:40;;;;;;;0.70;0.70;;;5.90;19.70;;;;;;5035716;28;20214;-82
2023/12/21 06:14:06;;;;;;;0.70;0.70;;;5.90;22.40;;;;;;5037008;28;20175;-81
2023/12/21 06:16:32;;;;;;;0.80;0.80;;;5.80;32.70;;;;;;5036733;28;20216;-82
2023/12/21 06:18:59;;;;;;;0.70;0.70;;;5.90;30.70;;;;;;5037439;28;20191;-82
2023/12/21 06:21:24;;;;;;;0.80;0.80;;;5.90;33.70;;;;;;5038117;28;20195;-81
2023/12/21 06:23:50;;;;;;;0.80;0.80;;;5.90;42.30;;;;;;5034307;28;20188;-80
2023/12/21 06:26:15;;;;;;;0.80;0.80;;;5.90;50.00;;;;;;5027320;28;20226;-81
2023/12/21 06:28:41;;;;;;;0.80;0.80;;;6.00;47.50;;;;;;5026965;28;20173;-81
2023/12/21 06:31:07;;;;;;;0.80;0.80;;;6.00;56.60;;;;;;5025660;28;20182;-80
2023/12/21 06:33:32;;;;;;;0.80;0.80;;;5.90;87.30;;;;;;5027970;28;20190;-80
2023/12/21 06:35:58;;;;;;;0.70;0.70;;;5.90;93.30;;;;;;5022758;28;20267;-81
2023/12/21 06:38:23;;;;;;;0.70;0.70;;;6.00;99.90;;;;;;5018281;28;20211;-81
2023/12/21 06:40:50;;;;;;;0.80;0.80;;;6.00;99.90;;;;;;5029565;28;20291;-80
2023/12/21 06:43:16;;;;;;;0.70;0.70;;;6.00;99.90;;;;;;5026623;28;20176;-84
2023/12/21 06:45:42;;;;;;;0.80;0.80;;;6.00;99.90;;;;;;5047086;28;20287;-80
2023/12/21 06:48:07;;;;;;;0.77;0.77;;;6.00;99.90;;;;;;5043547;28;20168;-83
2023/12/21 06:50:33;;;;;;;0.80;0.80;;;6.00;99.90;;;;;;5049181;28;20191;-84
2023/12/21 06:52:59;;;;;;;0.70;0.70;;;6.00;99.90;;;;;;5042201;28;20231;-85
2023/12/21 06:55:25;;;;;;;0.90;0.90;;;6.00;99.90;;;;;;5051048;28;20221;-83
2023/12/21 06:57:51;;;;;;;0.70;0.70;;;6.00;99.90;;;;;;5049686;28;20180;-82
2023/12/21 07:00:17;;;;;;;0.80;0.80;;;5.90;99.90;;;;;;5053171;28;20180;-80
2023/12/21 07:02:43;;;;;;;0.80;0.80;;;5.90;99.90;;;;;;5051425;28;20194;-83
2023/12/21 07:05:08;;;;;;;0.70;0.70;;;5.90;99.90;;;;;;5047847;28;20220;-83
2023/12/21 07:07:34;;;;;;;0.70;0.70;;;6.00;99.90;;;;;;5047517;28;20214;-78
2023/12/21 07:10:00;;;;;;;0.77;0.77;;;6.00;99.90;;;;;;5056914;28;20186;-79
2023/12/21 07:12:27;;;;;;;0.70;0.70;;;6.00;97.80;;;;;;5055973;28;20167;-80
2023/12/21 07:14:53;;;;;;;0.80;0.80;;;6.00;97.30;;;;;;5055597;28;20244;-85
2023/12/21 07:17:19;;;;;;;0.70;0.70;;;6.50;99.90;;;;;;5051567;28;20199;-80
2023/12/21 07:19:45;;;;;;;0.70;0.70;;;6.30;23.90;;;;;;5044193;28;20200;-82
2023/12/21 07:22:11;;;;;;;0.87;0.87;;;6.20;42.90;;;;;;5037913;28;20176;-80
2023/12/21 07:24:37;;;;;;;0.70;0.70;;;6.10;58.30;;;;;;5024632;28;20288;-82
2023/12/21 07:27:03;;;;;;;0.80;0.80;;;6.10;65.30;;;;;;5027181;28;20271;-83
2023/12/21 07:29:29;;;;;;;0.70;0.70;;;6.10;56.30;;;;;;5028173;28;20226;-83
2023/12/21 07:31:54;;;;;;;0.80;0.80;;;6.10;53.90;;;;;;5039509;28;20172;-82
2023/12/21 07:34:20;;;;;;;0.70;0.70;;;6.20;40.50;;;;;;5036997;28;20176;-83
2023/12/21 07:36:47;;;;;;;0.80;0.80;;;6.20;42.50;;;;;;5036011;28;20204;-84
2023/12/21 07:39:12;;;;;;;0.73;0.73;;;6.20;37.70;;;;;;5034784;28;20184;-82
2023/12/21 07:41:39;;;;;;;0.90;0.90;;;6.20;39.60;;;;;;5033569;28;20672;-84
2023/12/21 07:44:04;;;;;;;0.80;0.80;;;6.30;25.90;;;;;;5029859;28;20180;-83
2023/12/21 07:46:30;;;;;;;0.70;0.70;;;6.40;19.90;;;;;;5047815;28;20582;-83
2023/12/21 07:48:56;;;;;;;0.70;0.70;;;6.40;11.70;;;;;;5036343;28;20168;-81
2023/12/21 07:51:21;;;;;;;0.70;0.70;;;6.40;19.20;;;;;;5036877;28;20643;-82
2023/12/21 07:53:47;;;;;;;0.80;0.80;;;6.50;6.50;;;;;;5038172;28;20179;-84
2023/12/21 07:56:12;;;;;;;0.80;0.80;;;6.50;12.60;;;;;;5038359;28;20203;-83
2023/12/21 07:58:38;;;;;;;0.70;0.70;;;6.50;6.50;;;;;;5036334;28;20180;-82
2023/12/21 08:01:04;;;;;;;0.80;0.80;;;6.50;13.00;;;;;;5035770;28;20198;-84
2023/12/21 08:03:29;;;;;;;0.70;0.70;;;6.50;6.90;;;;;;5033120;28;20194;-80
2023/12/21 08:05:55;;;;;;;0.70;0.70;;;6.60;1.00;;;;;;5028781;28;20212;-81
2023/12/21 08:08:21;;;;;;;0.80;0.80;;;6.60;1.00;;;;;;5018310;28;20258;-83
2023/12/21 08:10:46;;;;;;;0.70;0.70;;;6.60;1.00;;;;;;5026524;28;20204;-81
2023/12/21 08:13:13;;;;;;;0.70;0.70;;;6.70;2.60;;;;;;5025919;28;20167;-83
2023/12/21 08:15:39;;;;;;;0.63;0.63;;;6.70;1.00;;;;;;5028775;28;20198;-85
2023/12/21 08:18:05;;;;;;;0.80;0.80;;;6.70;1.00;;;;;;5030834;28;20614;-82
2023/12/21 08:20:30;;;;;;;0.70;0.70;;;6.80;1.00;;;;;;5035595;28;20602;-83
2023/12/21 08:22:58;;;;;;;0.70;0.70;;;6.80;1.00;;;;;;5024260;28;20182;-82
2023/12/21 08:25:24;;;;;;;0.70;0.70;;;6.90;1.00;;;;;;5021455;28;20242;-84
2023/12/21 08:27:49;;;;;;;0.80;0.80;;;6.90;1.00;;;;;;5035458;28;20199;-83
2023/12/21 08:30:15;;;;;;;0.63;0.63;;;6.90;1.00;;;;;;5035827;28;20221;-83
2023/12/21 08:32:41;;;;;;;0.77;0.77;;;7.00;1.00;;;;;;5035829;28;20209;-83
2023/12/21 08:35:07;;;;;;;0.70;0.70;;;7.00;1.00;;;;;;5024700;28;20179;-84
2023/12/21 08:37:33;;;;;;;0.70;0.70;;;7.00;1.00;;;;;;5035400;28;20946;-82
2023/12/21 08:39:58;;;;;;;0.70;0.70;;;7.00;1.00;;;;;;5025538;28;20546;-83
2023/12/21 08:42:26;;;;;;;0.80;0.80;;;7.10;1.00;;;;;;5042425;28;20177;-80
2023/12/21 08:44:52;;;;;;;0.80;0.80;;;7.20;1.00;;;;;;5047443;28;20199;-84
2023/12/21 08:47:18;;;;;;;0.70;0.70;;;7.20;1.00;;;;;;5031553;28;20469;-86
2023/12/21 08:49:43;;;;;;;0.80;0.80;;;7.20;1.00;;;;;;5015405;28;20223;-86
2023/12/21 08:52:09;;;;;;;0.60;0.60;;;7.20;1.00;;;;;;5016174;28;20643;-85
2023/12/21 08:54:35;;;;;;;0.70;0.70;;;7.20;1.00;;;;;;5016552;28;20191;-84
2023/12/21 08:57:01;;;;;;;0.70;0.70;;;7.30;1.00;;;;;;5025543;28;20199;-84
2023/12/21 08:59:27;;;;;;;0.70;0.70;;;7.80;1.00;;;;;;5023987;28;20655;-85
2023/12/21 09:01:56;;;;;;;0.70;0.70;;;7.30;1.00;;;;;;5033306;28;20181;-84
2023/12/21 09:04:21;;;;;;;0.70;0.70;;;7.30;1.00;;;;;;5033731;28;20181;-80
2023/12/21 09:06:47;;;;;;;0.70;0.70;;;7.30;1.00;;;;;;5031416;28;20227;-84
2023/12/21 09:09:13;;;;;;;0.60;0.60;;;7.40;1.00;;;;;;5018722;28;20720;-83
2023/12/21 09:11:39;;;;;;;0.70;0.70;;;7.40;1.00;;;;;;5017641;28;20184;-83
2023/12/21 09:14:07;;;;;;;0.80;0.80;;;7.40;1.00;;;;;;5017450;28;20177;-84
2023/12/21 09:16:32;;;;;;;0.70;0.70;;;7.40;1.00;;;;;;5016254;28;20197;-84
2023/12/21 09:18:58;;;;;;;0.80;0.80;;;7.40;1.00;;;;;;5017549;28;20181;-84
2023/12/21 09:21:24;;;;;;;0.60;0.60;;;7.40;1.00;;;;;;5017262;28;20588;-84
2023/12/21 09:23:50;;;;;;;0.80;0.80;;;7.40;1.00;;;;;;5017492;28;20247;-85
2023/12/21 09:26:16;;;;;;;0.80;0.80;;;7.40;1.00;;;;;;5014044;28;20212;-84
2023/12/21 09:28:42;;;;;;;0.73;0.73;;;7.40;1.00;;;;;;5016889;28;20177;-84
2023/12/21 09:31:07;;;;;;;0.90;0.90;;;7.40;1.00;;;;;;5024550;28;20591;-84
2023/12/21 09:33:34;;;;;;;0.67;0.67;;;7.40;1.00;;;;;;5028933;28;20204;-84
2023/12/21 09:36:03;;;;;;;0.70;0.70;;;7.40;1.00;;;;;;5030516;28;20195;-85
2023/12/21 09:38:30;;;;;;;0.70;0.70;;;7.40;1.00;;;;;;5036620;28;20184;-83
2023/12/21 09:40:57;;;;;;;0.70;0.70;;;7.40;1.00;;;;;;5025375;28;20180;-84
2023/12/21 09:43:23;;;;;;;0.70;0.70;;;7.50;1.00;;;;;;5018792;28;20558;-83
2023/12/21 09:45:51;;;;;;;0.70;0.70;;;7.50;1.00;;;;;;5021055;28;20227;-86
2023/12/21 09:48:18;;;;;;;0.63;0.63;;;7.50;1.00;;;;;;5016519;28;20168;-84
2023/12/21 09:50:45;;;;;;;0.80;0.80;;;7.50;1.00;;;;;;5027964;28;20204;-83
2023/12/21 09:53:13;;;;;;;0.70;0.70;;;7.60;1.00;;;;;;5040070;28;20172;-85
2023/12/21 09:55:42;;;;;;;0.70;0.70;;;7.60;1.00;;;;;;5038818;28;20246;-81
2023/12/21 09:58:09;;;;;;;0.70;0.70;;;7.60;1.00;;;;;;5034371;28;20552;-83
2023/12/21 10:00:35;;;;;;;0.70;0.70;;;7.60;1.00;;;;;;5027971;28;20302;-87
2023/12/21 10:03:01;;;;;;;0.80;0.80;;;7.60;1.00;;;;;;5026827;28;20180;-85
2023/12/21 10:05:27;;;;;;;0.80;0.80;;;7.60;1.00;;;;;;5027459;28;20566;-84
2023/12/21 10:07:52;;;;;;;0.70;0.70;;;7.70;1.00;;;;;;5026447;28;20191;-81
2023/12/21 10:10:19;;;;;;;0.70;0.70;;;7.60;1.00;;;;;;5014967;28;20212;-83
2023/12/21 10:12:45;;;;;;;0.80;0.80;;;7.70;1.00;;;;;;5033635;28;20199;-83
2023/12/21 10:15:11;;;;;;;0.70;0.70;;;7.70;1.00;;;;;;5029663;28;20275;-83
2023/12/21 10:17:38;;;;;;;0.70;0.70;;;7.70;1.00;;;;;;5022424;28;20204;-83
2023/12/21 10:20:04;;;;;;;0.70;0.70;;;7.70;1.00;;;;;;5037367;28;20191;-81
2023/12/21 10:22:29;;;;;;;0.73;0.73;;;7.70;1.00;;;;;;5034002;28;20176;-86
2023/12/21 10:24:55;;;;;;;0.77;0.77;;;7.70;1.00;;;;;;5038193;28;20179;-87
2023/12/21 10:27:22;;;;;;;0.70;0.70;;;7.70;1.00;;;;;;5034076;28;20257;-82
2023/12/21 10:29:55;;;;;;;0.80;0.80;;;7.70;1.00;;;;;;5026343;28;20177;-84
2023/12/21 10:32:21;;;;;;;0.70;0.70;;;7.70;1.00;;;;;;5035758;28;20183;-81
2023/12/21 10:34:50;;;;;;;0.70;0.70;;;7.70;1.00;;;;;;5020097;28;20320;-84
2023/12/21 10:37:16;;;;;;;0.80;0.80;;;7.70;1.00;;;;;;5017368;28;20558;-82
2023/12/21 10:39:42;;;;;;;0.70;0.70;;;7.80;1.00;;;;;;5028898;28;20275;-81
2023/12/21 10:42:07;;;;;;;0.70;0.70;;;7.80;1.00;;;;;;5027871;28;20200;-82
2023/12/21 10:44:33;;;;;;;0.70;0.70;;;7.80;1.00;;;;;;5030055;28;20188;-82
2023/12/21 10:47:01;;;;;;;0.70;0.70;;;7.80;1.00;;;;;;5030908;28;20262;-83
2023/12/21 10:49:27;;;;;;;0.70;0.70;;;7.80;1.00;;;;;;5026352;28;20230;-83
2023/12/21 10:51:54;;;;;;;0.73;0.73;;;7.70;1.00;;;;;;5036281;28;20202;-82
2023/12/21 10:54:22;;;;;;;0.70;0.70;;;7.70;1.00;;;;;;5035465;28;20226;-83
2023/12/21 10:56:47;;;;;;;0.70;0.70;;;7.70;48.10;;;;;;5035719;28;20906;-84
2023/12/21 10:59:14;;;;;;;0.70;0.70;;;7.70;32.50;;;;;;5035069;28;20172;-83
2023/12/21 11:01:40;;;;;;;0.70;0.70;;;7.70;1.00;;;;;;5036162;28;20195;-82
2023/12/21 11:04:08;;;;;;;0.80;0.80;;;7.70;5.00;;;;;;5035976;28;20172;-86
2023/12/21 11:06:33;;;;;;;0.70;0.70;;;7.70;1.00;;;;;;5026254;28;20342;-83
2023/12/21 11:09:04;;;;;;;0.70;0.70;;;7.80;1.00;;;;;;5026104;28;20207;-84
2023/12/21 11:11:31;;;;;;;0.80;0.80;;;7.80;1.00;;;;;;5025259;28;20176;-82
2023/12/21 11:13:56;;;;;;;0.67;0.67;;;7.80;1.00;;;;;;5029398;28;20177;-83
2023/12/21 11:17:02;;;;;;;0.70;0.70;;;7.80;1.00;;;;;;5020885;28;20611;-81
2023/12/21 11:19:33;;;;;;;0.50;0.50;;;7.80;1.00;;;;;;5031663;28;20778;-82
2023/12/21 11:22:00;;;;;;;0.70;0.70;;;7.90;1.00;;;;;;5034843;28;20176;-82
2023/12/21 11:24:26;;;;;;;0.63;0.63;;;7.80;1.00;;;;;;5034059;28;20196;-82
2023/12/21 11:26:52;;;;;;;0.80;0.80;;;7.80;1.00;;;;;;5035789;28;20211;-82
2023/12/21 11:29:27;;;;;;;0.67;0.67;;;7.80;1.00;;;;;;5032728;28;20180;-84
2023/12/21 11:31:54;;;;;;;0.60;0.60;;;7.80;1.00;;;;;;5023830;28;20255;-81
2023/12/21 11:34:41;;;;;;;0.70;0.70;;;7.90;1.00;;;;;;5029235;28;20183;-82
2023/12/21 11:37:25;;;;;;;0.80;0.80;;;7.90;1.00;;;;;;5031659;28;20199;-83
2023/12/21 11:39:58;;;;;;;0.70;0.70;;;7.90;1.00;;;;;;5029150;28;20179;-82
2023/12/21 11:42:37;;;;;;;0.60;0.60;;;7.90;1.00;;;;;;5032208;28;20187;-83
2023/12/21 11:45:06;;;;;;;0.70;0.70;;;7.90;1.00;;;;;;5034475;28;20182;-82
2023/12/21 11:47:33;;;;;;;0.80;0.80;;;7.90;1.00;;;;;;5030690;28;20235;-84
2023/12/21 11:50:08;;;;;;;0.70;0.70;;;7.90;1.00;;;;;;5034631;28;20275;-81
2023/12/21 11:52:34;;;;;;;0.70;0.70;;;7.90;1.00;;;;;;5020152;28;20680;-81
2023/12/21 11:55:00;;;;;;;0.60;0.60;;;8.00;1.00;;;;;;5013278;28;20176;-82
2023/12/21 11:57:31;;;;;;;0.70;0.70;;;7.90;1.00;;;;;;5029117;28;20226;-84
2023/12/21 12:00:21;;;;;;;0.70;0.70;;;8.00;1.00;;;;;;5033982;28;20176;-84
2023/12/21 12:02:50;;;;;;;0.60;0.60;;;7.90;1.00;;;;;;5029356;28;20564;-84
2023/12/21 12:05:24;;;;;;;0.60;0.60;;;8.00;1.00;;;;;;5034191;28;20274;-81
2023/12/21 12:07:50;;;;;;;0.70;0.70;;;7.90;1.00;;;;;;5035352;28;20167;-83
2023/12/21 12:10:18;;;;;;;0.70;0.70;;;7.90;7.70;;;;;;5034232;28;20845;-83
2023/12/21 12:12:44;;;;;;;0.63;0.63;;;7.90;13.90;;;;;;5035358;28;20266;-84
2023/12/21 12:15:10;;;;;;;0.70;0.70;;;8.00;1.00;;;;;;5036253;28;20199;-83
2023/12/21 12:17:42;;;;;;;0.70;0.70;;;8.00;8.30;;;;;;5035699;28;20692;-82
2023/12/21 12:20:09;;;;;;;0.70;0.70;;;8.00;1.00;;;;;;5036260;28;20179;-82
2023/12/21 12:22:35;;;;;;;0.80;0.80;;;8.00;5.60;;;;;;5035899;28;20180;-82
2023/12/21 12:25:02;;;;;;;0.70;0.70;;;8.00;1.00;;;;;;5035748;28;20605;-84
2023/12/21 12:27:28;;;;;;;0.70;0.70;;;8.10;1.00;;;;;;5035924;28;20200;-81
2023/12/21 12:29:55;;;;;;;0.70;0.70;;;8.10;1.00;;;;;;5036549;28;20204;-84
2023/12/21 12:32:21;;;;;;;0.70;0.70;;;8.10;1.00;;;;;;5035123;28;20330;-82
2023/12/21 12:34:47;;;;;;;0.80;0.80;;;8.10;1.00;;;;;;5036270;28;20590;-80
2023/12/21 12:37:15;;;;;;;0.60;0.60;;;8.20;1.00;;;;;;5036389;28;20196;-83
2023/12/21 12:39:41;;;;;;;0.80;0.80;;;8.20;1.00;;;;;;5034708;28;20180;-82
2023/12/21 12:42:09;;;;;;;0.70;0.70;;;8.70;1.00;;;;;;5037639;28;20670;-82
2023/12/21 12:44:35;;;;;;;0.73;0.73;;;8.20;1.00;;;;;;5035324;28;20168;-83
2023/12/21 12:47:01;;;;;;;0.70;0.70;;;8.20;1.00;;;;;;5049050;28;20238;-81
2023/12/21 12:49:26;;;;;;;0.77;0.77;;;8.20;1.00;;;;;;5053404;28;20163;-80
2023/12/21 12:51:54;;;;;;;0.80;0.80;;;8.10;1.00;;;;;;5046223;28;20230;-82
2023/12/21 12:54:20;;;;;;;0.70;0.70;;;8.10;1.00;;;;;;5045820;28;20186;-82
2023/12/21 12:56:46;;;;;;;0.70;0.70;;;8.20;1.00;;;;;;5044592;28;20291;-84
2023/12/21 12:59:12;;;;;;;0.60;0.60;;;8.20;1.00;;;;;;5025382;28;20225;-85
2023/12/21 13:01:38;;;;;;;0.73;0.73;;;8.20;1.00;;;;;;5026800;28;20227;-85